Time;durP1;ratioP1;P1;durP2;ratioP2;P2;SDS_P1;SDS_P2;PMS_P1;PMS_P2;Temp;Humidity;BMP_temperature;BMP_pressure;BME280_temperature;BME280_humidity;BME280_pressure;Samples;Min_cycle;Max_cycle;Signal;HPM_P1;HPM_P2
2022/04/30 00:00:29;;;;;;;12.32;5.40;;;;;;;;;;5019356;28;20034;-58
2022/04/30 00:02:59;;;;;;;11.30;6.28;;;;;;;;;;5016106;28;20033;-58
2022/04/30 00:05:25;;;;;;;12.00;5.95;;;;;;;;;;5022335;28;20025;-57
2022/04/30 00:07:51;;;;;;;10.82;5.80;;;;;;;;;;5022104;28;20159;-58
2022/04/30 00:10:17;;;;;;;10.10;6.05;;;;;;;;;;5022053;28;20029;-58
2022/04/30 00:12:44;;;;;;;11.07;5.80;;;;;;;;;;5021460;28;20040;-57
2022/04/30 00:15:10;;;;;;;9.65;6.18;;;;;;;;;;5015092;28;20398;-58
2022/04/30 00:17:36;;;;;;;12.60;6.45;;;;;;;;;;5017260;28;20036;-58
2022/04/30 00:20:03;;;;;;;13.40;6.20;;;;;;;;;;5021494;28;20181;-59
2022/04/30 00:22:29;;;;;;;12.75;6.22;;;;;;;;;;5025476;28;20082;-58
2022/04/30 00:24:55;;;;;;;12.65;5.90;;;;;;;;;;5019418;28;20152;-58
2022/04/30 00:27:21;;;;;;;10.10;5.93;;;;;;;;;;5021661;28;20164;-58
2022/04/30 00:29:47;;;;;;;10.48;6.32;;;;;;;;;;5024667;28;20560;-58
2022/04/30 00:32:14;;;;;;;9.80;5.30;;;;;;;;;;5022386;28;20104;-58
2022/04/30 00:34:41;;;;;;;9.05;5.22;;;;;;;;;;5021143;28;20518;-58
2022/04/30 00:37:07;;;;;;;11.35;5.40;;;;;;;;;;5020945;28;20025;-58
2022/04/30 00:39:34;;;;;;;14.70;5.82;;;;;;;;;;5018190;28;20037;-58
2022/04/30 00:42:00;;;;;;;9.38;5.90;;;;;;;;;;5022513;28;20036;-58
2022/04/30 00:44:27;;;;;;;9.00;6.07;;;;;;;;;;5022793;28;20120;-59
2022/04/30 00:46:54;;;;;;;10.70;6.00;;;;;;;;;;5022094;28;20027;-58
2022/04/30 00:49:19;;;;;;;13.80;6.28;;;;;;;;;;5021622;28;20033;-57
2022/04/30 00:51:46;;;;;;;10.05;5.60;;;;;;;;;;5021456;28;20497;-57
2022/04/30 00:54:16;;;;;;;10.38;5.95;;;;;;;;;;5021543;28;20473;-58
2022/04/30 00:56:45;;;;;;;9.38;5.93;;;;;;;;;;5020363;28;20068;-58
2022/04/30 00:59:12;;;;;;;11.80;6.20;;;;;;;;;;5018564;28;20032;-58
2022/04/30 01:01:38;;;;;;;11.50;5.25;;;;;;;;;;5021360;28;20373;-57
2022/04/30 01:04:07;;;;;;;8.23;5.60;;;;;;;;;;5015948;28;20026;-58
2022/04/30 01:06:36;;;;;;;8.95;5.90;;;;;;;;;;5017744;28;20026;-58
2022/04/30 01:09:02;;;;;;;11.43;5.50;;;;;;;;;;5013274;28;20079;-58
2022/04/30 01:11:29;;;;;;;9.75;5.70;;;;;;;;;;5024102;28;20176;-58
2022/04/30 01:13:56;;;;;;;7.68;5.65;;;;;;;;;;5024637;28;20021;-59
2022/04/30 01:16:22;;;;;;;8.13;5.72;;;;;;;;;;5016504;28;20029;-58
2022/04/30 01:18:48;;;;;;;9.05;5.28;;;;;;;;;;5020627;28;20025;-57
2022/04/30 01:21:15;;;;;;;9.93;5.85;;;;;;;;;;5022057;28;20047;-57
2022/04/30 01:23:42;;;;;;;9.27;5.68;;;;;;;;;;5020410;28;20037;-57
2022/04/30 01:26:09;;;;;;;10.75;5.97;;;;;;;;;;5024109;28;20037;-57
2022/04/30 01:28:36;;;;;;;8.88;5.57;;;;;;;;;;5022935;28;20037;-59
2022/04/30 01:31:02;;;;;;;9.82;5.65;;;;;;;;;;5018714;28;20029;-58
2022/04/30 01:39:16;;;;;;;11.48;5.90;;;;;;;;;;5041317;28;20130;-58
2022/04/30 01:41:43;;;;;;;8.02;5.95;;;;;;;;;;5025268;28;20037;-58
2022/04/30 01:44:09;;;;;;;8.95;6.22;;;;;;;;;;5019135;28;20876;-58
2022/04/30 01:46:35;;;;;;;8.75;6.35;;;;;;;;;;5018217;28;20032;-59
2022/04/30 01:49:04;;;;;;;12.57;6.65;;;;;;;;;;5022228;28;20025;-58
2022/04/30 01:51:30;;;;;;;11.02;6.00;;;;;;;;;;5022006;28;20022;-59
2022/04/30 01:53:56;;;;;;;8.63;5.82;;;;;;;;;;5018485;28;20369;-59
2022/04/30 01:56:22;;;;;;;11.57;6.63;;;;;;;;;;5018128;28;20056;-58
2022/04/30 01:58:50;;;;;;;8.90;6.75;;;;;;;;;;5017667;28;20057;-58
2022/04/30 02:01:16;;;;;;;11.40;6.53;;;;;;;;;;5020198;28;20026;-57
2022/04/30 02:03:42;;;;;;;10.63;6.88;;;;;;;;;;5020039;28;20087;-57
2022/04/30 02:06:08;;;;;;;11.38;6.53;;;;;;;;;;5020546;28;20032;-58
2022/04/30 02:08:35;;;;;;;9.98;6.32;;;;;;;;;;5019152;28;20022;-58
2022/04/30 02:11:01;;;;;;;10.30;6.93;;;;;;;;;;5019901;28;20060;-58
2022/04/30 02:13:30;;;;;;;9.60;6.72;;;;;;;;;;5019901;28;20065;-57
2022/04/30 02:15:57;;;;;;;13.40;7.20;;;;;;;;;;5016726;28;20069;-59
2022/04/30 02:18:25;;;;;;;9.88;6.75;;;;;;;;;;5015295;28;20037;-59
2022/04/30 02:20:51;;;;;;;13.68;7.85;;;;;;;;;;5019744;28;20025;-58
2022/04/30 02:23:17;;;;;;;13.95;7.40;;;;;;;;;;5019454;28;20030;-58
2022/04/30 02:25:44;;;;;;;12.70;7.63;;;;;;;;;;5025275;28;20646;-57
2022/04/30 02:28:10;;;;;;;12.98;6.90;;;;;;;;;;5015597;28;20626;-57
2022/04/30 02:30:38;;;;;;;12.05;7.57;;;;;;;;;;5021076;28;20022;-58
2022/04/30 02:33:10;;;;;;;13.85;7.40;;;;;;;;;;5026917;28;20611;-58
2022/04/30 02:35:38;;;;;;;17.17;7.45;;;;;;;;;;5025147;28;20029;-58
2022/04/30 02:38:08;;;;;;;11.25;6.85;;;;;;;;;;5016439;28;20045;-58
2022/04/30 02:40:34;;;;;;;11.88;7.88;;;;;;;;;;5020301;28;20469;-58
2022/04/30 02:43:07;;;;;;;12.40;7.43;;;;;;;;;;5021896;28;20040;-57
2022/04/30 02:45:33;;;;;;;14.60;8.10;;;;;;;;;;5022448;28;20500;-57
2022/04/30 02:47:59;;;;;;;12.43;6.80;;;;;;;;;;5020352;28;20036;-58
2022/04/30 02:50:25;;;;;;;12.77;7.70;;;;;;;;;;5026671;28;20056;-59
2022/04/30 02:52:54;;;;;;;11.13;7.35;;;;;;;;;;5023451;28;20481;-58
2022/04/30 02:55:20;;;;;;;12.63;7.80;;;;;;;;;;5023429;28;20417;-57
2022/04/30 03:00:34;;;;;;;13.27;7.50;;;;;;;;;;5027207;28;20075;-58
2022/04/30 03:03:00;;;;;;;12.50;7.40;;;;;;;;;;5022733;28;20044;-59
2022/04/30 03:05:26;;;;;;;9.45;6.50;;;;;;;;;;5018496;28;20029;-58
2022/04/30 03:07:53;;;;;;;9.55;6.85;;;;;;;;;;5023072;28;20036;-59
2022/04/30 03:10:19;;;;;;;13.65;8.18;;;;;;;;;;5024747;28;20405;-57
2022/04/30 03:12:45;;;;;;;12.32;7.15;;;;;;;;;;5020943;28;20021;-58
2022/04/30 03:15:11;;;;;;;11.88;6.70;;;;;;;;;;5019978;28;20080;-58
2022/04/30 03:23:14;;;;;;;11.63;6.70;;;;;;;;;;5020612;28;20037;-59
2022/04/30 03:25:40;;;;;;;11.18;6.63;;;;;;;;;;5019568;28;20826;-59
2022/04/30 03:28:06;;;;;;;11.07;6.28;;;;;;;;;;5023477;28;20025;-58
2022/04/30 03:30:32;;;;;;;8.50;6.20;;;;;;;;;;5022574;28;20499;-59
2022/04/30 03:32:58;;;;;;;9.15;6.10;;;;;;;;;;5023566;28;20022;-58
2022/04/30 03:35:25;;;;;;;14.45;7.18;;;;;;;;;;5024727;28;20037;-58
2022/04/30 03:37:51;;;;;;;12.90;6.40;;;;;;;;;;5018932;28;20029;-58
2022/04/30 03:40:16;;;;;;;10.50;6.15;;;;;;;;;;5022615;28;20426;-58
2022/04/30 03:42:43;;;;;;;13.43;6.88;;;;;;;;;;5021483;28;20168;-58
2022/04/30 03:45:09;;;;;;;13.75;7.32;;;;;;;;;;5017318;28;20725;-59
2022/04/30 03:47:37;;;;;;;12.13;6.43;;;;;;;;;;5019370;28;20477;-58
2022/04/30 03:50:03;;;;;;;10.80;7.20;;;;;;;;;;5025046;28;20037;-57
2022/04/30 03:52:30;;;;;;;12.73;6.95;;;;;;;;;;5018360;28;20143;-58
2022/04/30 03:54:56;;;;;;;10.27;7.25;;;;;;;;;;5019424;28;20022;-59
2022/04/30 03:57:24;;;;;;;9.65;7.05;;;;;;;;;;5022169;28;20025;-59
2022/04/30 03:59:50;;;;;;;12.05;6.70;;;;;;;;;;5024578;28;20128;-58
2022/04/30 04:02:18;;;;;;;12.88;7.22;;;;;;;;;;5024652;28;20068;-58
2022/04/30 04:04:45;;;;;;;12.55;7.28;;;;;;;;;;5020570;28;20037;-59
2022/04/30 04:07:11;;;;;;;13.85;7.53;;;;;;;;;;5019430;28;20048;-59
2022/04/30 04:09:37;;;;;;;12.43;6.88;;;;;;;;;;5025921;28;20034;-58
2022/04/30 04:12:03;;;;;;;14.50;7.78;;;;;;;;;;5021500;28;20084;-58
2022/04/30 04:19:58;;;;;;;13.48;7.93;;;;;;;;;;5015058;28;20164;-59
2022/04/30 04:22:24;;;;;;;15.93;7.95;;;;;;;;;;5016958;28;20030;-57
2022/04/30 04:27:35;;;;;;;16.50;7.43;;;;;;;;;;5013445;28;20492;-58
2022/04/30 04:30:01;;;;;;;13.88;8.07;;;;;;;;;;5021199;28;20025;-58
2022/04/30 04:32:27;;;;;;;11.88;7.70;;;;;;;;;;5020689;28;20046;-58
2022/04/30 04:34:53;;;;;;;13.50;8.27;;;;;;;;;;5016927;28;20404;-58
2022/04/30 04:37:20;;;;;;;13.63;8.27;;;;;;;;;;5019506;28;20037;-57
2022/04/30 04:39:46;;;;;;;15.88;8.57;;;;;;;;;;5017442;28;20033;-58
2022/04/30 04:42:11;;;;;;;14.43;7.65;;;;;;;;;;5019493;28;20079;-58
2022/04/30 04:44:37;;;;;;;13.85;8.70;;;;;;;;;;5022538;28;20044;-58
2022/04/30 04:47:04;;;;;;;22.27;8.65;;;;;;;;;;5018387;28;20025;-57
2022/04/30 04:49:31;;;;;;;13.45;7.63;;;;;;;;;;5022050;28;20041;-58
2022/04/30 04:51:57;;;;;;;15.20;8.48;;;;;;;;;;5023111;28;20110;-58
2022/04/30 04:54:23;;;;;;;14.57;8.52;;;;;;;;;;5022923;28;20030;-57
2022/04/30 04:56:50;;;;;;;21.10;9.38;;;;;;;;;;5017579;28;20052;-59
2022/04/30 04:59:16;;;;;;;17.40;8.60;;;;;;;;;;5020499;28;20036;-58
2022/04/30 05:01:42;;;;;;;15.98;9.13;;;;;;;;;;5021161;28;20033;-59
2022/04/30 05:04:08;;;;;;;18.20;9.38;;;;;;;;;;5019310;28;20026;-57
2022/04/30 05:06:35;;;;;;;16.45;9.50;;;;;;;;;;5022621;28;20022;-59
2022/04/30 05:09:01;;;;;;;15.82;9.43;;;;;;;;;;5018886;28;20018;-58
2022/04/30 05:11:27;;;;;;;20.33;10.27;;;;;;;;;;5023794;28;20029;-58
2022/04/30 05:13:53;;;;;;;15.25;9.38;;;;;;;;;;5017364;28;20036;-57
2022/04/30 05:16:19;;;;;;;16.52;9.95;;;;;;;;;;5018917;28;20030;-58
2022/04/30 05:18:45;;;;;;;17.38;9.80;;;;;;;;;;5020359;28;20052;-57
2022/04/30 05:21:11;;;;;;;15.57;10.15;;;;;;;;;;5016988;28;20028;-58
2022/04/30 05:23:37;;;;;;;16.92;9.93;;;;;;;;;;5013299;28;20036;-57
2022/04/30 05:26:04;;;;;;;18.48;9.65;;;;;;;;;;5018462;28;20030;-58
2022/04/30 05:28:30;;;;;;;15.82;10.05;;;;;;;;;;5021247;28;20185;-59
2022/04/30 05:30:56;;;;;;;17.60;10.73;;;;;;;;;;5022503;28;20112;-60
2022/04/30 05:33:22;;;;;;;18.58;10.40;;;;;;;;;;5019695;28;20033;-59
2022/04/30 05:35:48;;;;;;;18.80;11.38;;;;;;;;;;5019707;28;20075;-59
2022/04/30 05:38:14;;;;;;;21.80;12.10;;;;;;;;;;5016046;28;20033;-59
2022/04/30 05:40:40;;;;;;;18.05;10.60;;;;;;;;;;5023181;28;20747;-60
2022/04/30 05:43:06;;;;;;;16.40;10.95;;;;;;;;;;5020996;28;20365;-60
2022/04/30 05:45:32;;;;;;;18.58;10.80;;;;;;;;;;5019012;28;20454;-58
2022/04/30 05:47:58;;;;;;;19.00;11.50;;;;;;;;;;5016776;28;20029;-60
2022/04/30 05:50:24;;;;;;;18.15;11.38;;;;;;;;;;5021462;28;20033;-60
2022/04/30 05:52:50;;;;;;;17.27;10.88;;;;;;;;;;5018866;28;20025;-60
2022/04/30 05:55:16;;;;;;;18.73;11.20;;;;;;;;;;5017139;28;20065;-60
2022/04/30 05:57:42;;;;;;;17.77;11.35;;;;;;;;;;5019605;28;20040;-59
2022/04/30 06:00:08;;;;;;;17.42;10.32;;;;;;;;;;5017726;28;20052;-59
2022/04/30 06:02:34;;;;;;;15.98;11.23;;;;;;;;;;5026180;28;20168;-60
2022/04/30 06:05:01;;;;;;;18.00;11.18;;;;;;;;;;5012933;28;20500;-59
2022/04/30 06:07:26;;;;;;;19.10;10.38;;;;;;;;;;5026548;28;20029;-59
2022/04/30 06:09:52;;;;;;;19.98;11.10;;;;;;;;;;5021122;28;20022;-60
2022/04/30 06:12:19;;;;;;;24.08;12.00;;;;;;;;;;5017691;28;20119;-59
2022/04/30 06:14:45;;;;;;;19.13;10.52;;;;;;;;;;5024206;28;20589;-59
2022/04/30 06:17:11;;;;;;;19.13;11.27;;;;;;;;;;5011718;28;20547;-59
2022/04/30 06:19:37;;;;;;;17.58;10.48;;;;;;;;;;5017713;28;20120;-59
2022/04/30 06:22:04;;;;;;;18.50;10.73;;;;;;;;;;5019305;28;20035;-60
2022/04/30 06:24:29;;;;;;;18.17;11.10;;;;;;;;;;5024480;28;20037;-60
2022/04/30 06:26:55;;;;;;;15.60;10.48;;;;;;;;;;5023122;28;20045;-58
2022/04/30 06:29:22;;;;;;;18.92;10.90;;;;;;;;;;5025985;28;20017;-59
2022/04/30 06:31:51;;;;;;;17.63;10.63;;;;;;;;;;5022520;28;20113;-59
2022/04/30 06:34:18;;;;;;;20.80;10.27;;;;;;;;;;5023923;28;20050;-58
2022/04/30 06:36:44;;;;;;;19.75;11.30;;;;;;;;;;5023381;28;20056;-60
2022/04/30 06:39:10;;;;;;;20.92;11.20;;;;;;;;;;5021526;28;20049;-59
2022/04/30 06:41:36;;;;;;;22.77;10.80;;;;;;;;;;5018254;28;20033;-60
2022/04/30 06:44:02;;;;;;;20.23;11.13;;;;;;;;;;5020196;28;20247;-59
2022/04/30 06:46:28;;;;;;;19.40;10.68;;;;;;;;;;5023503;28;20634;-60
2022/04/30 06:48:54;;;;;;;18.48;10.68;;;;;;;;;;5024450;28;20112;-59
2022/04/30 06:51:20;;;;;;;25.85;10.93;;;;;;;;;;5024667;28;20503;-59
2022/04/30 06:59:17;;;;;;;22.00;12.23;;;;;;;;;;5021362;28;20037;-59
2022/04/30 07:01:44;;;;;;;17.90;10.73;;;;;;;;;;5020842;28;20725;-58
2022/04/30 07:04:10;;;;;;;18.73;11.20;;;;;;;;;;5014968;28;20051;-60
2022/04/30 07:06:37;;;;;;;22.52;13.23;;;;;;;;;;5018034;28;20406;-60
2022/04/30 07:09:04;;;;;;;22.70;12.88;;;;;;;;;;5020719;28;20033;-60
2022/04/30 07:11:30;;;;;;;15.55;8.93;;;;;;;;;;5017380;28;20060;-60
2022/04/30 07:13:56;;;;;;;23.30;11.10;;;;;;;;;;5017148;28;20113;-60
2022/04/30 07:16:22;;;;;;;24.88;14.13;;;;;;;;;;5019226;28;20350;-59
2022/04/30 07:18:48;;;;;;;21.50;9.40;;;;;;;;;;5020151;28;20105;-59
2022/04/30 07:21:15;;;;;;;18.48;10.43;;;;;;;;;;5023184;28;20437;-60
2022/04/30 07:23:41;;;;;;;19.80;9.93;;;;;;;;;;5021327;28;20080;-59
2022/04/30 07:26:07;;;;;;;15.73;10.40;;;;;;;;;;5022756;28;20026;-60
2022/04/30 07:28:35;;;;;;;17.70;10.85;;;;;;;;;;5017843;28;21926;-60
2022/04/30 07:31:02;;;;;;;18.40;11.13;;;;;;;;;;5016762;28;20443;-58
2022/04/30 07:33:28;;;;;;;22.48;12.27;;;;;;;;;;5022992;28;20445;-59
2022/04/30 07:35:55;;;;;;;18.42;9.82;;;;;;;;;;5022056;28;20100;-59
2022/04/30 07:38:21;;;;;;;15.60;8.98;;;;;;;;;;5023025;28;20038;-60
2022/04/30 07:40:47;;;;;;;15.35;8.10;;;;;;;;;;5021612;28;20038;-60
2022/04/30 07:43:13;;;;;;;17.67;8.30;;;;;;;;;;5021934;28;20043;-59
2022/04/30 07:45:39;;;;;;;13.07;8.15;;;;;;;;;;5022279;28;20393;-60
2022/04/30 07:48:05;;;;;;;12.50;7.43;;;;;;;;;;5022123;28;20297;-58
2022/04/30 07:50:35;;;;;;;13.00;7.15;;;;;;;;;;5020796;28;20067;-59
2022/04/30 07:53:02;;;;;;;12.50;6.90;;;;;;;;;;5020456;28;20021;-59
2022/04/30 07:55:28;;;;;;;11.27;6.70;;;;;;;;;;5022115;28;20488;-61
2022/04/30 07:57:55;;;;;;;11.10;6.18;;;;;;;;;;5018905;28;20025;-60
2022/04/30 08:00:21;;;;;;;10.57;6.97;;;;;;;;;;5023354;28;20535;-60
2022/04/30 08:02:47;;;;;;;14.65;6.07;;;;;;;;;;5025230;28;20029;-59
2022/04/30 08:05:13;;;;;;;9.70;5.65;;;;;;;;;;5019045;28;20061;-60
2022/04/30 08:07:39;;;;;;;11.80;5.85;;;;;;;;;;5022072;28;20049;-59
2022/04/30 08:10:06;;;;;;;11.85;6.03;;;;;;;;;;5017867;28;20021;-60
2022/04/30 08:12:32;;;;;;;10.25;5.53;;;;;;;;;;5018803;28;20029;-59
2022/04/30 08:14:57;;;;;;;7.93;5.30;;;;;;;;;;5017890;28;20059;-60
2022/04/30 08:17:23;;;;;;;9.82;4.43;;;;;;;;;;5018507;28;20034;-60
2022/04/30 08:19:50;;;;;;;6.82;4.68;;;;;;;;;;5021074;28;20435;-59
2022/04/30 08:22:16;;;;;;;7.80;4.70;;;;;;;;;;5021351;28;20033;-60
2022/04/30 08:24:42;;;;;;;6.90;4.90;;;;;;;;;;5024991;28;20108;-60
2022/04/30 08:27:08;;;;;;;8.18;4.28;;;;;;;;;;5015052;28;20045;-59
2022/04/30 08:29:34;;;;;;;8.05;5.25;;;;;;;;;;5022149;28;20091;-59
2022/04/30 08:32:00;;;;;;;6.43;4.82;;;;;;;;;;5023771;28;20083;-58
2022/04/30 08:34:26;;;;;;;8.95;5.13;;;;;;;;;;5020776;28;20496;-59
2022/04/30 08:36:53;;;;;;;8.18;5.55;;;;;;;;;;5023674;28;20029;-59
2022/04/30 08:39:19;;;;;;;8.80;5.57;;;;;;;;;;5013077;28;20033;-59
2022/04/30 08:41:46;;;;;;;8.90;5.72;;;;;;;;;;5016395;28;20132;-59
2022/04/30 08:44:16;;;;;;;13.18;8.23;;;;;;;;;;5014335;28;20075;-58
2022/04/30 08:46:42;;;;;;;14.50;6.47;;;;;;;;;;5020971;28;20033;-59
2022/04/30 08:49:09;;;;;;;10.45;5.43;;;;;;;;;;5021690;28;20033;-59
2022/04/30 08:51:35;;;;;;;7.13;4.53;;;;;;;;;;5021498;28;20064;-59
2022/04/30 08:54:01;;;;;;;7.65;3.90;;;;;;;;;;5020556;28;20866;-59
2022/04/30 08:56:27;;;;;;;8.68;4.60;;;;;;;;;;5023719;28;20100;-59
2022/04/30 08:59:02;;;;;;;7.65;4.07;;;;;;;;;;5019471;28;20021;-60
2022/04/30 09:01:28;;;;;;;8.50;4.25;;;;;;;;;;5021663;28;20469;-59
2022/04/30 09:03:55;;;;;;;7.82;4.57;;;;;;;;;;5016579;28;20037;-60
2022/04/30 09:06:22;;;;;;;6.90;4.25;;;;;;;;;;5020480;28;20490;-59
2022/04/30 09:08:51;;;;;;;9.25;4.20;;;;;;;;;;5021819;28;20017;-60
2022/04/30 09:11:18;;;;;;;9.20;4.15;;;;;;;;;;5020479;28;20091;-59
2022/04/30 09:13:47;;;;;;;6.18;4.03;;;;;;;;;;5021459;28;20040;-59
2022/04/30 09:16:23;;;;;;;7.10;4.53;;;;;;;;;;5021664;28;20044;-60
2022/04/30 09:18:50;;;;;;;8.15;4.80;;;;;;;;;;5015792;28;20037;-59
2022/04/30 09:21:17;;;;;;;9.82;5.32;;;;;;;;;;5023104;28;20048;-59
2022/04/30 09:23:43;;;;;;;10.23;6.03;;;;;;;;;;5014413;28;20038;-59
2022/04/30 09:26:10;;;;;;;9.73;6.07;;;;;;;;;;5019961;28;20445;-59
2022/04/30 09:28:37;;;;;;;7.75;5.40;;;;;;;;;;5013957;28;20100;-59
2022/04/30 09:31:03;;;;;;;7.50;5.20;;;;;;;;;;5022360;28;20105;-59
2022/04/30 09:33:29;;;;;;;8.05;4.65;;;;;;;;;;5017840;28;20109;-59
2022/04/30 09:38:45;;;;;;;7.28;5.28;;;;;;;;;;5023407;28;20048;-60
2022/04/30 09:41:11;;;;;;;9.73;4.50;;;;;;;;;;5019056;28;20072;-60
2022/04/30 09:43:37;;;;;;;7.75;4.68;;;;;;;;;;5020512;28;20059;-59
2022/04/30 09:46:07;;;;;;;8.13;4.63;;;;;;;;;;5012615;28;20025;-58
2022/04/30 09:54:03;;;;;;;6.57;3.97;;;;;;;;;;5020435;28;20392;-59
2022/04/30 09:56:36;;;;;;;8.02;4.47;;;;;;;;;;5022394;28;20021;-60
2022/04/30 09:59:06;;;;;;;7.57;4.20;;;;;;;;;;5021877;28;20045;-60
2022/04/30 10:01:34;;;;;;;7.22;4.82;;;;;;;;;;5022877;28;20034;-60
2022/04/30 10:04:05;;;;;;;6.88;4.40;;;;;;;;;;5015831;28;20124;-59
2022/04/30 10:06:31;;;;;;;7.40;4.47;;;;;;;;;;5020472;28;20420;-60
2022/04/30 10:08:57;;;;;;;6.45;4.38;;;;;;;;;;5016055;28;20533;-60
2022/04/30 10:11:38;;;;;;;10.35;4.65;;;;;;;;;;5020495;28;20366;-59
2022/04/30 10:14:23;;;;;;;6.95;4.18;;;;;;;;;;5014733;28;20033;-59
2022/04/30 10:17:12;;;;;;;7.47;4.10;;;;;;;;;;5020434;28;20025;-59
2022/04/30 10:19:36;;;;;;;6.38;3.33;;;;;;;;;;5015768;28;20029;-58
2022/04/30 10:22:10;;;;;;;4.65;3.30;;;;;;;;;;5018719;28;20037;-60
2022/04/30 10:24:41;;;;;;;8.88;3.75;;;;;;;;;;5019093;28;20030;-59
2022/04/30 10:27:07;;;;;;;4.97;3.60;;;;;;;;;;5011715;28;20649;-59
2022/04/30 10:29:33;;;;;;;7.22;3.53;;;;;;;;;;5020377;28;20101;-58
2022/04/30 10:31:59;;;;;;;5.10;3.03;;;;;;;;;;5018387;28;20026;-60
2022/04/30 10:34:29;;;;;;;5.35;3.70;;;;;;;;;;5018195;28;20040;-59
2022/04/30 10:36:55;;;;;;;7.60;4.00;;;;;;;;;;5022580;28;20033;-59
2022/04/30 10:39:21;;;;;;;4.38;3.15;;;;;;;;;;5019470;28;20034;-59
2022/04/30 10:41:53;;;;;;;3.80;3.40;;;;;;;;;;5015809;28;20736;-60
2022/04/30 10:44:39;;;;;;;4.65;3.25;;;;;;;;;;5021580;28;20025;-59
2022/04/30 10:47:17;;;;;;;8.43;3.00;;;;;;;;;;5018861;28;20025;-59
2022/04/30 10:49:43;;;;;;;7.93;3.05;;;;;;;;;;5022224;28;20028;-59
2022/04/30 10:52:10;;;;;;;4.93;2.78;;;;;;;;;;5026169;28;20022;-59
2022/04/30 10:54:39;;;;;;;7.68;3.40;;;;;;;;;;5025790;28;20109;-60
2022/04/30 10:57:05;;;;;;;5.40;3.83;;;;;;;;;;5020234;28;20155;-58
2022/04/30 10:59:31;;;;;;;5.78;3.70;;;;;;;;;;5026599;28;20048;-59
2022/04/30 11:01:57;;;;;;;4.75;3.13;;;;;;;;;;5022821;28;20025;-60
2022/04/30 11:04:24;;;;;;;6.10;3.50;;;;;;;;;;5021402;28;20460;-58
2022/04/30 11:06:51;;;;;;;4.35;2.75;;;;;;;;;;5023555;28;20037;-59
2022/04/30 11:09:18;;;;;;;6.07;3.70;;;;;;;;;;5024575;28;20141;-58
2022/04/30 11:11:45;;;;;;;5.93;3.58;;;;;;;;;;5021665;28;20104;-58
2022/04/30 11:14:12;;;;;;;5.45;3.28;;;;;;;;;;5022528;28;20028;-58
2022/04/30 11:16:42;;;;;;;5.65;3.55;;;;;;;;;;5020845;28;20139;-58
2022/04/30 11:19:10;;;;;;;6.45;3.25;;;;;;;;;;5023145;28;20026;-59
2022/04/30 11:21:40;;;;;;;6.20;3.75;;;;;;;;;;5019745;28;20596;-57
2022/04/30 11:24:07;;;;;;;6.63;3.50;;;;;;;;;;5020671;28;20030;-58
2022/04/30 11:26:40;;;;;;;6.78;3.30;;;;;;;;;;5022755;28;20037;-60
2022/04/30 11:29:14;;;;;;;4.80;2.75;;;;;;;;;;5024906;28;20021;-59
2022/04/30 11:31:41;;;;;;;5.10;3.20;;;;;;;;;;5020374;28;20029;-59
2022/04/30 11:34:16;;;;;;;6.78;2.60;;;;;;;;;;5018064;28;20116;-59
2022/04/30 11:36:43;;;;;;;4.20;2.80;;;;;;;;;;5022016;28;20030;-58
2022/04/30 11:39:10;;;;;;;5.15;3.00;;;;;;;;;;5020283;28;20041;-58
2022/04/30 11:41:43;;;;;;;3.80;2.83;;;;;;;;;;5018547;28;20088;-58
2022/04/30 11:44:10;;;;;;;4.90;2.90;;;;;;;;;;5021734;28;20029;-59
2022/04/30 11:46:37;;;;;;;3.60;2.70;;;;;;;;;;5016929;28;20093;-58
2022/04/30 11:49:10;;;;;;;6.68;2.90;;;;;;;;;;5021889;28;20436;-58
2022/04/30 11:51:37;;;;;;;3.95;2.97;;;;;;;;;;5018260;28;20029;-59
2022/04/30 11:54:03;;;;;;;5.30;3.30;;;;;;;;;;5020671;28;20034;-60
2022/04/30 11:56:31;;;;;;;5.57;3.00;;;;;;;;;;5023252;28;20366;-60
2022/04/30 11:58:57;;;;;;;4.32;2.10;;;;;;;;;;5019846;28;20018;-59
2022/04/30 12:01:26;;;;;;;4.47;2.20;;;;;;;;;;5023512;28;20030;-59
2022/04/30 12:03:56;;;;;;;4.82;2.65;;;;;;;;;;5018209;28;20029;-60
2022/04/30 12:06:26;;;;;;;3.17;2.17;;;;;;;;;;5021242;28;20109;-59
2022/04/30 12:08:52;;;;;;;5.10;2.58;;;;;;;;;;5021840;28;20388;-59
2022/04/30 12:11:17;;;;;;;4.35;2.80;;;;;;;;;;5025307;28;20469;-60
2022/04/30 12:13:44;;;;;;;3.47;2.45;;;;;;;;;;5023265;28;20026;-59
2022/04/30 12:16:10;;;;;;;5.50;2.58;;;;;;;;;;5020381;28;20021;-59
2022/04/30 12:27:03;;;;;;;6.82;2.50;;;;;;;;;;5021150;28;20116;-60
2022/04/30 12:29:30;;;;;;;3.38;2.50;;;;;;;;;;5021072;28;20250;-59
2022/04/30 12:31:57;;;;;;;4.47;2.17;;;;;;;;;;5020077;28;20029;-59
2022/04/30 12:34:25;;;;;;;5.15;2.40;;;;;;;;;;5015121;28;20030;-59
2022/04/30 12:36:54;;;;;;;4.35;2.80;;;;;;;;;;5015995;28;20025;-58
2022/04/30 12:39:22;;;;;;;5.85;2.95;;;;;;;;;;5016864;28;20045;-59
2022/04/30 12:41:48;;;;;;;5.55;2.40;;;;;;;;;;5018382;28;20060;-59
2022/04/30 12:44:15;;;;;;;4.20;2.70;;;;;;;;;;5021990;28;20037;-58
2022/04/30 12:46:44;;;;;;;4.68;2.90;;;;;;;;;;5023278;28;20034;-60
2022/04/30 12:49:12;;;;;;;4.03;2.47;;;;;;;;;;5021514;28;21068;-59
2022/04/30 12:51:38;;;;;;;5.05;2.38;;;;;;;;;;5021927;28;20084;-59
2022/04/30 12:54:05;;;;;;;3.13;1.90;;;;;;;;;;5016278;28;20156;-58
2022/04/30 12:56:31;;;;;;;5.22;2.03;;;;;;;;;;5022697;28;20040;-59
2022/04/30 12:58:57;;;;;;;4.80;2.08;;;;;;;;;;5022830;28;20549;-58
2022/04/30 13:01:23;;;;;;;3.55;2.10;;;;;;;;;;5019730;28;20167;-60
2022/04/30 13:03:50;;;;;;;3.15;1.80;;;;;;;;;;5018336;28;20022;-59
2022/04/30 13:06:17;;;;;;;2.53;1.95;;;;;;;;;;5022118;28;20029;-58
2022/04/30 13:14:12;;;;;;;4.88;2.08;;;;;;;;;;5020881;28;20024;-59
2022/04/30 13:16:38;;;;;;;5.85;2.17;;;;;;;;;;5015761;28;20396;-58
2022/04/30 13:19:04;;;;;;;3.15;2.15;;;;;;;;;;5021976;28;20311;-59
2022/04/30 13:21:30;;;;;;;2.85;1.90;;;;;;;;;;5021205;28;20060;-59
2022/04/30 13:23:56;;;;;;;5.63;1.90;;;;;;;;;;5019164;28;20318;-59
2022/04/30 13:26:22;;;;;;;3.97;1.60;;;;;;;;;;5022586;28;20382;-58
2022/04/30 13:28:49;;;;;;;3.38;1.73;;;;;;;;;;5020986;28;20040;-59
2022/04/30 13:31:15;;;;;;;5.57;2.15;;;;;;;;;;5022979;28;20715;-60
2022/04/30 13:33:41;;;;;;;7.53;1.77;;;;;;;;;;5019519;28;20037;-61
2022/04/30 13:36:10;;;;;;;2.78;1.70;;;;;;;;;;5022429;28;20112;-60
2022/04/30 13:38:40;;;;;;;6.68;1.90;;;;;;;;;;5021275;28;20520;-60
2022/04/30 13:41:06;;;;;;;5.55;2.10;;;;;;;;;;5020391;28;20538;-59
2022/04/30 13:43:33;;;;;;;3.85;1.95;;;;;;;;;;5020704;28;20034;-59
2022/04/30 13:45:59;;;;;;;4.10;1.65;;;;;;;;;;5020900;28;20041;-59
2022/04/30 13:48:25;;;;;;;2.42;1.70;;;;;;;;;;5021377;28;20041;-60
2022/04/30 13:50:54;;;;;;;4.05;1.70;;;;;;;;;;5020614;28;20025;-59
2022/04/30 13:53:20;;;;;;;4.45;1.65;;;;;;;;;;5017858;28;20509;-59
2022/04/30 13:55:46;;;;;;;4.30;1.65;;;;;;;;;;5020407;28;20025;-59
2022/04/30 13:58:13;;;;;;;4.50;1.98;;;;;;;;;;5020208;28;20025;-60
2022/04/30 14:00:39;;;;;;;6.65;2.17;;;;;;;;;;5022937;28;20511;-60
2022/04/30 14:03:05;;;;;;;3.58;1.80;;;;;;;;;;5018145;28;20033;-60
2022/04/30 14:05:32;;;;;;;2.13;1.60;;;;;;;;;;5021424;28;20072;-59
2022/04/30 14:07:58;;;;;;;3.13;1.60;;;;;;;;;;5020799;28;20225;-59
2022/04/30 14:10:27;;;;;;;4.60;1.50;;;;;;;;;;5022202;28;20026;-60
2022/04/30 14:12:53;;;;;;;5.50;2.13;;;;;;;;;;5018032;28;20025;-60
2022/04/30 14:15:21;;;;;;;3.10;1.90;;;;;;;;;;5020875;28;20033;-60
2022/04/30 14:20:32;;;;;;;6.85;3.05;;;;;;;;;;5023235;28;20052;-60
2022/04/30 14:22:59;;;;;;;4.00;2.58;;;;;;;;;;5018003;28;20057;-59
2022/04/30 14:25:25;;;;;;;4.80;2.78;;;;;;;;;;5020492;28;20593;-59
2022/04/30 14:27:51;;;;;;;6.38;3.17;;;;;;;;;;5021914;28;20112;-59
2022/04/30 14:30:18;;;;;;;4.30;3.25;;;;;;;;;;5023305;28;20080;-60
2022/04/30 14:32:44;;;;;;;6.15;3.08;;;;;;;;;;5023997;28;20033;-61
2022/04/30 14:35:11;;;;;;;6.82;3.38;;;;;;;;;;5024835;28;20465;-58
2022/04/30 14:37:37;;;;;;;4.68;3.67;;;;;;;;;;5024582;28;20091;-59
2022/04/30 14:40:04;;;;;;;7.85;3.75;;;;;;;;;;5024362;28;20623;-59
2022/04/30 14:42:31;;;;;;;9.30;4.30;;;;;;;;;;5022685;28;20511;-59
2022/04/30 14:44:57;;;;;;;7.90;4.32;;;;;;;;;;5023539;28;20029;-60
2022/04/30 14:47:24;;;;;;;5.97;4.18;;;;;;;;;;5025299;28;20108;-60
2022/04/30 14:49:50;;;;;;;9.48;4.30;;;;;;;;;;5024165;28;20500;-59
2022/04/30 14:52:17;;;;;;;9.02;5.00;;;;;;;;;;5023293;28;20071;-57
2022/04/30 14:54:43;;;;;;;6.35;4.50;;;;;;;;;;5022068;28;20439;-58
2022/04/30 14:57:09;;;;;;;7.35;4.25;;;;;;;;;;5021817;28;20437;-59
2022/04/30 14:59:35;;;;;;;8.98;5.25;;;;;;;;;;5024743;28;20021;-59
2022/04/30 15:02:01;;;;;;;6.85;4.80;;;;;;;;;;5020813;28;20043;-58
2022/04/30 15:04:27;;;;;;;7.93;4.82;;;;;;;;;;5018316;28;20058;-59
2022/04/30 15:06:55;;;;;;;7.90;4.90;;;;;;;;;;5020285;28;20025;-59
2022/04/30 15:09:21;;;;;;;7.43;4.90;;;;;;;;;;5021920;28;20516;-58
2022/04/30 15:11:47;;;;;;;9.75;4.63;;;;;;;;;;5021800;28;20540;-58
2022/04/30 15:14:13;;;;;;;6.80;4.90;;;;;;;;;;5024051;28;20512;-59
2022/04/30 15:16:39;;;;;;;8.15;4.60;;;;;;;;;;5021693;28;20029;-58
2022/04/30 15:19:05;;;;;;;8.52;4.50;;;;;;;;;;5019152;28;20022;-58
2022/04/30 15:21:31;;;;;;;7.60;4.32;;;;;;;;;;5021330;28;20033;-60
2022/04/30 15:23:57;;;;;;;7.22;4.50;;;;;;;;;;5021143;28;20017;-58
2022/04/30 15:26:23;;;;;;;7.65;4.18;;;;;;;;;;5022810;28;20048;-59